sensor_id;sensor_type;location;lat;lon;timestamp;pressure;altitude;pressure_sealevel;temperature;humidity
35248;BME280;21380;52.194;20.520;2023-05-11T00:02:19;101004.75;;;18.94;39.03
35248;BME280;21380;52.194;20.520;2023-05-11T00:04:44;100972.16;;;18.74;38.95
35248;BME280;21380;52.194;20.520;2023-05-11T00:07:10;101029.31;;;19.06;38.83
35248;BME280;21380;52.194;20.520;2023-05-11T00:09:36;100996.78;;;18.90;38.76
35248;BME280;21380;52.194;20.520;2023-05-11T00:12:03;101000.25;;;18.87;38.70
35248;BME280;21380;52.194;20.520;2023-05-11T00:14:30;100964.19;;;18.66;38.84
35248;BME280;21380;52.194;20.520;2023-05-11T00:16:56;100981.78;;;18.76;38.84
35248;BME280;21380;52.194;20.520;2023-05-11T00:19:22;100992.38;;;18.84;38.74
35248;BME280;21380;52.194;20.520;2023-05-11T00:21:49;100951.00;;;18.58;38.95
35248;BME280;21380;52.194;20.520;2023-05-11T00:24:14;101014.38;;;18.99;38.73
35248;BME280;21380;52.194;20.520;2023-05-11T00:26:40;100982.69;;;18.78;38.83
35248;BME280;21380;52.194;20.520;2023-05-11T00:29:06;101006.31;;;18.85;38.93
35248;BME280;21380;52.194;20.520;2023-05-11T00:31:32;100992.28;;;18.78;38.80
35248;BME280;21380;52.194;20.520;2023-05-11T00:33:58;100994.91;;;18.81;38.75
35248;BME280;21380;52.194;20.520;2023-05-11T00:36:24;101001.06;;;18.83;39.04
35248;BME280;21380;52.194;20.520;2023-05-11T00:38:49;101003.69;;;18.85;38.83
35248;BME280;21380;52.194;20.520;2023-05-11T00:41:15;100995.75;;;18.78;38.83
35248;BME280;21380;52.194;20.520;2023-05-11T00:43:41;100987.00;;;18.76;38.94
35248;BME280;21380;52.194;20.520;2023-05-11T00:46:07;100996.63;;;18.79;38.71
35248;BME280;21380;52.194;20.520;2023-05-11T00:48:35;100989.66;;;18.78;39.02
35248;BME280;21380;52.194;20.520;2023-05-11T00:51:02;101001.06;;;18.83;38.79
35248;BME280;21380;52.194;20.520;2023-05-11T00:53:29;100997.50;;;18.78;38.96
35248;BME280;21380;52.194;20.520;2023-05-11T00:55:54;101023.91;;;18.95;39.08
35248;BME280;21380;52.194;20.520;2023-05-11T00:58:20;100992.22;;;18.75;39.00
35248;BME280;21380;52.194;20.520;2023-05-11T01:00:47;101002.75;;;18.81;38.81
35248;BME280;21380;52.194;20.520;2023-05-11T01:03:13;101024.75;;;18.92;38.74
35248;BME280;21380;52.194;20.520;2023-05-11T01:08:23;101021.16;;;18.87;39.01
35248;BME280;21380;52.194;20.520;2023-05-11T01:10:59;101012.38;;;18.84;39.08
35248;BME280;21380;52.194;20.520;2023-05-11T01:13:33;100983.34;;;18.65;38.99
35248;BME280;21380;52.194;20.520;2023-05-11T01:16:05;100975.47;;;18.62;38.96
35248;BME280;21380;52.194;20.520;2023-05-11T01:18:59;101021.16;;;18.87;38.94
35248;BME280;21380;52.194;20.520;2023-05-11T01:21:29;101007.06;;;18.79;38.91
35248;BME280;21380;52.194;20.520;2023-05-11T01:31:45;100944.75;;;18.48;38.95
35248;BME280;21380;52.194;20.520;2023-05-11T01:34:16;101008.91;;;18.83;38.97
35248;BME280;21380;52.194;20.520;2023-05-11T01:36:48;101015.81;;;18.81;38.90
35248;BME280;21380;52.194;20.520;2023-05-11T01:39:19;100997.41;;;18.73;38.94
35248;BME280;21380;52.194;20.520;2023-05-11T01:41:50;100993.03;;;18.72;38.94
35248;BME280;21380;52.194;20.520;2023-05-11T01:44:20;100971.84;;;18.55;39.17
35248;BME280;21380;52.194;20.520;2023-05-11T01:46:49;100992.91;;;18.64;38.93
35248;BME280;21380;52.194;20.520;2023-05-11T01:49:16;101015.78;;;18.78;38.93
35248;BME280;21380;52.194;20.520;2023-05-11T01:51:44;101000.84;;;18.69;38.83
35248;BME280;21380;52.194;20.520;2023-05-11T01:54:11;100988.53;;;18.62;38.91
35248;BME280;21380;52.194;20.520;2023-05-11T01:56:39;101014.88;;;18.76;38.71
35248;BME280;21380;52.194;20.520;2023-05-11T01:59:05;100999.91;;;18.66;39.04
35248;BME280;21380;52.194;20.520;2023-05-11T02:01:33;100988.44;;;18.57;38.97
35248;BME280;21380;52.194;20.520;2023-05-11T02:04:03;100973.47;;;18.47;39.02
35248;BME280;21380;52.194;20.520;2023-05-11T02:06:31;100944.47;;;18.31;38.84
35248;BME280;21380;52.194;20.520;2023-05-11T02:08:59;100977.97;;;18.54;39.00
35248;BME280;21380;52.194;20.520;2023-05-11T02:11:28;100947.03;;;18.28;39.03
35248;BME280;21380;52.194;20.520;2023-05-11T02:13:56;100991.88;;;18.53;39.13
35248;BME280;21380;52.194;20.520;2023-05-11T02:16:23;101001.53;;;18.59;39.09
35248;BME280;21380;52.194;20.520;2023-05-11T02:18:52;100990.09;;;18.51;39.18
35248;BME280;21380;52.194;20.520;2023-05-11T02:21:21;100976.03;;;18.44;39.10
35248;BME280;21380;52.194;20.520;2023-05-11T02:23:47;100996.19;;;18.53;39.22
35248;BME280;21380;52.194;20.520;2023-05-11T02:26:14;100997.91;;;18.51;39.12
35248;BME280;21380;52.194;20.520;2023-05-11T02:28:41;100988.22;;;18.43;39.19
35248;BME280;21380;52.194;20.520;2023-05-11T02:31:11;100990.00;;;18.46;39.31
35248;BME280;21380;52.194;20.520;2023-05-11T02:33:43;100988.13;;;18.39;39.09
35248;BME280;21380;52.194;20.520;2023-05-11T02:36:15;100995.19;;;18.44;39.27
35248;BME280;21380;52.194;20.520;2023-05-11T02:38:42;100992.53;;;18.41;39.28
35248;BME280;21380;52.194;20.520;2023-05-11T02:41:13;100991.63;;;18.39;39.30
35248;BME280;21380;52.194;20.520;2023-05-11T02:43:44;100982.84;;;18.34;39.22
35248;BME280;21380;52.194;20.520;2023-05-11T02:46:14;100967.00;;;18.26;39.31
35248;BME280;21380;52.194;20.520;2023-05-11T02:48:45;101003.91;;;18.45;39.29
35248;BME280;21380;52.194;20.520;2023-05-11T02:51:13;101022.38;;;18.54;39.36
35248;BME280;21380;52.194;20.520;2023-05-11T02:53:41;101015.28;;;18.47;39.68
35248;BME280;21380;52.194;20.520;2023-05-11T02:56:10;100991.56;;;18.36;39.47
35248;BME280;21380;52.194;20.520;2023-05-11T02:58:36;100988.88;;;18.31;39.40
35248;BME280;21380;52.194;20.520;2023-05-11T03:01:05;100951.00;;;18.06;39.45
35248;BME280;21380;52.194;20.520;2023-05-11T03:03:32;100979.09;;;18.20;39.45
35248;BME280;21380;52.194;20.520;2023-05-11T03:05:58;100956.28;;;18.09;39.37
35248;BME280;21380;52.194;20.520;2023-05-11T03:08:24;101020.50;;;18.47;39.19
35248;BME280;21380;52.194;20.520;2023-05-11T03:10:51;100996.63;;;18.25;39.39
35248;BME280;21380;52.194;20.520;2023-05-11T03:13:18;100979.06;;;18.17;39.53
35248;BME280;21380;52.194;20.520;2023-05-11T03:15:47;101030.94;;;18.45;39.17
35248;BME280;21380;52.194;20.520;2023-05-11T03:18:13;101026.56;;;18.44;39.19
35248;BME280;21380;52.194;20.520;2023-05-11T03:20:41;101026.47;;;18.41;39.57
35248;BME280;21380;52.194;20.520;2023-05-11T03:23:08;101000.97;;;18.26;39.45
35248;BME280;21380;52.194;20.520;2023-05-11T03:25:34;100977.19;;;18.11;39.13
35248;BME280;21380;52.194;20.520;2023-05-11T03:28:01;101031.69;;;18.40;39.38
35248;BME280;21380;52.194;20.520;2023-05-11T03:30:28;101004.47;;;18.27;39.36
35248;BME280;21380;52.194;20.520;2023-05-11T03:32:55;100993.06;;;18.22;39.40
35248;BME280;21380;52.194;20.520;2023-05-11T03:35:24;100963.94;;;18.00;39.37
35248;BME280;21380;52.194;20.520;2023-05-11T03:37:53;100978.03;;;18.10;39.40
35248;BME280;21380;52.194;20.520;2023-05-11T03:40:20;100979.75;;;18.08;39.42
35248;BME280;21380;52.194;20.520;2023-05-11T03:42:50;100982.31;;;18.06;39.50
35248;BME280;21380;52.194;20.520;2023-05-11T03:45:19;101002.63;;;18.23;39.51
35248;BME280;21380;52.194;20.520;2023-05-11T03:47:47;101026.25;;;18.29;39.45
35248;BME280;21380;52.194;20.520;2023-05-11T03:50:14;101019.34;;;18.31;39.41
35248;BME280;21380;52.194;20.520;2023-05-11T03:52:41;101043.94;;;18.44;39.40
35248;BME280;21380;52.194;20.520;2023-05-11T03:55:08;101034.16;;;18.32;39.72
35248;BME280;21380;52.194;20.520;2023-05-11T03:57:34;101036.78;;;18.34;39.75
35248;BME280;21380;52.194;20.520;2023-05-11T04:00:00;101031.47;;;18.29;39.51
35248;BME280;21380;52.194;20.520;2023-05-11T04:02:26;101018.28;;;18.21;39.64
35248;BME280;21380;52.194;20.520;2023-05-11T04:04:52;101026.22;;;18.26;39.47
35248;BME280;21380;52.194;20.520;2023-05-11T04:07:18;101027.06;;;18.26;39.58
35248;BME280;21380;52.194;20.520;2023-05-11T04:09:45;100991.00;;;18.05;39.52
35248;BME280;21380;52.194;20.520;2023-05-11T04:12:10;101017.34;;;18.18;39.42
35248;BME280;21380;52.194;20.520;2023-05-11T04:14:36;101014.81;;;18.22;39.44
35248;BME280;21380;52.194;20.520;2023-05-11T04:17:02;101020.13;;;18.25;39.40
35248;BME280;21380;52.194;20.520;2023-05-11T04:19:28;101036.00;;;18.38;39.32
35248;BME280;21380;52.194;20.520;2023-05-11T04:21:57;101037.75;;;18.39;39.30
35248;BME280;21380;52.194;20.520;2023-05-11T04:24:23;101021.97;;;18.33;39.41
35248;BME280;21380;52.194;20.520;2023-05-11T04:26:54;101006.97;;;18.21;39.51
35248;BME280;21380;52.194;20.520;2023-05-11T04:29:20;101053.72;;;18.54;39.44
35248;BME280;21380;52.194;20.520;2023-05-11T04:31:46;100985.06;;;18.12;39.39
35248;BME280;21380;52.194;20.520;2023-05-11T04:34:12;101035.13;;;18.39;39.37
35248;BME280;21380;52.194;20.520;2023-05-11T04:36:38;101023.72;;;18.34;39.13
35248;BME280;21380;52.194;20.520;2023-05-11T04:39:04;100999.13;;;18.19;39.16
35248;BME280;21380;52.194;20.520;2023-05-11T04:41:30;100995.59;;;18.19;39.27
35248;BME280;21380;52.194;20.520;2023-05-11T04:43:56;101059.00;;;18.59;38.92
35248;BME280;21380;52.194;20.520;2023-05-11T04:46:22;101024.69;;;18.39;39.27
35248;BME280;21380;52.194;20.520;2023-05-11T04:48:48;101060.69;;;18.55;39.23
35248;BME280;21380;52.194;20.520;2023-05-11T04:51:14;101049.25;;;18.48;38.97
35248;BME280;21380;52.194;20.520;2023-05-11T04:53:40;101058.94;;;18.54;39.19
35248;BME280;21380;52.194;20.520;2023-05-11T04:56:06;101053.72;;;18.54;39.04
35248;BME280;21380;52.194;20.520;2023-05-11T04:58:33;101002.63;;;18.23;39.17
35248;BME280;21380;52.194;20.520;2023-05-11T05:00:58;101042.22;;;18.44;39.04
35248;BME280;21380;52.194;20.520;2023-05-11T05:03:25;101073.03;;;18.64;39.31
35248;BME280;21380;52.194;20.520;2023-05-11T05:05:50;101034.38;;;18.43;39.03
35248;BME280;21380;52.194;20.520;2023-05-11T05:08:16;101073.94;;;18.66;38.98
35248;BME280;21380;52.194;20.520;2023-05-11T05:10:43;101074.84;;;18.67;39.14
35248;BME280;21380;52.194;20.520;2023-05-11T05:13:09;101022.03;;;18.34;39.27
35248;BME280;21380;52.194;20.520;2023-05-11T05:15:34;101057.19;;;18.53;39.38
35248;BME280;21380;52.194;20.520;2023-05-11T05:18:00;101016.69;;;18.28;39.39
35248;BME280;21380;52.194;20.520;2023-05-11T05:20:26;101071.25;;;18.61;39.25
35248;BME280;21380;52.194;20.520;2023-05-11T05:22:52;101096.63;;;18.69;39.45
35248;BME280;21380;52.194;20.520;2023-05-11T05:25:19;101061.50;;;18.53;39.35
35248;BME280;21380;52.194;20.520;2023-05-11T05:27:46;101051.88;;;18.50;39.27
35248;BME280;21380;52.194;20.520;2023-05-11T05:30:12;101085.34;;;18.70;39.16
35248;BME280;21380;52.194;20.520;2023-05-11T05:32:38;101087.09;;;18.71;39.38
35248;BME280;21380;52.194;20.520;2023-05-11T05:35:04;101063.38;;;18.60;39.19
35248;BME280;21380;52.194;20.520;2023-05-11T05:37:30;101039.53;;;18.41;39.44
35248;BME280;21380;52.194;20.520;2023-05-11T05:39:56;101035.16;;;18.40;39.45
35248;BME280;21380;52.194;20.520;2023-05-11T05:42:23;101076.53;;;18.63;39.15
35248;BME280;21380;52.194;20.520;2023-05-11T05:44:48;101055.38;;;18.49;39.15
35248;BME280;21380;52.194;20.520;2023-05-11T05:47:14;101094.00;;;18.67;39.11
35248;BME280;21380;52.194;20.520;2023-05-11T05:49:40;101024.56;;;18.31;39.31
35248;BME280;21380;52.194;20.520;2023-05-11T05:52:06;101062.44;;;18.55;39.06
35248;BME280;21380;52.194;20.520;2023-05-11T05:54:34;101102.81;;;18.74;39.23
35248;BME280;21380;52.194;20.520;2023-05-11T05:57:00;101059.78;;;18.53;39.57
35248;BME280;21380;52.194;20.520;2023-05-11T05:59:26;101036.78;;;18.34;39.51
35248;BME280;21380;52.194;20.520;2023-05-11T06:01:52;101016.59;;;18.23;39.52
35248;BME280;21380;52.194;20.520;2023-05-11T06:04:18;101098.53;;;18.77;39.57
35248;BME280;21380;52.194;20.520;2023-05-11T06:06:44;101038.78;;;18.47;39.50
35248;BME280;21380;52.194;20.520;2023-05-11T06:09:11;101061.59;;;18.57;39.59
35248;BME280;21380;52.194;20.520;2023-05-11T06:11:38;101044.94;;;18.49;39.71
35248;BME280;21380;52.194;20.520;2023-05-11T06:14:03;101081.06;;;18.75;39.54
35248;BME280;21380;52.194;20.520;2023-05-11T06:16:29;101045.00;;;18.55;39.65
35248;BME280;21380;52.194;20.520;2023-05-11T06:18:55;101028.22;;;18.41;39.63
35248;BME280;21380;52.194;20.520;2023-05-11T06:21:21;101016.75;;;18.33;39.72
35248;BME280;21380;52.194;20.520;2023-05-11T06:23:48;101077.47;;;18.67;39.95
35248;BME280;21380;52.194;20.520;2023-05-11T06:26:15;101068.69;;;18.63;39.67
35248;BME280;21380;52.194;20.520;2023-05-11T06:28:40;101025.53;;;18.38;39.66
35248;BME280;21380;52.194;20.520;2023-05-11T06:31:09;101022.94;;;18.38;39.67
35248;BME280;21380;52.194;20.520;2023-05-11T06:33:35;101042.31;;;18.49;40.39
35248;BME280;21380;52.194;20.520;2023-05-11T06:36:05;101092.94;;;18.11;37.30
35248;BME280;21380;52.194;20.520;2023-05-11T06:38:31;101101.66;;;16.97;37.54
35248;BME280;21380;52.194;20.520;2023-05-11T06:40:57;101103.53;;;17.38;37.96
35248;BME280;21380;52.194;20.520;2023-05-11T06:43:23;101097.22;;;17.66;39.34
35248;BME280;21380;52.194;20.520;2023-05-11T06:45:49;101096.69;;;17.83;39.18
35248;BME280;21380;52.194;20.520;2023-05-11T06:48:15;101082.00;;;17.88;38.74
35248;BME280;21380;52.194;20.520;2023-05-11T06:50:41;101078.72;;;17.95;38.69
35248;BME280;21380;52.194;20.520;2023-05-11T06:53:06;101097.31;;;18.12;38.52
35248;BME280;21380;52.194;20.520;2023-05-11T06:55:32;101080.81;;;18.13;38.26
35248;BME280;21380;52.194;20.520;2023-05-11T06:57:58;101072.09;;;18.13;38.09
35248;BME280;21380;52.194;20.520;2023-05-11T07:00:24;101095.91;;;18.28;38.13
35248;BME280;21380;52.194;20.520;2023-05-11T07:02:50;101087.22;;;18.29;38.23
35248;BME280;21380;52.194;20.520;2023-05-11T07:05:16;101078.38;;;18.23;38.20
35248;BME280;21380;52.194;20.520;2023-05-11T07:07:42;101078.47;;;18.27;38.35
35248;BME280;21380;52.194;20.520;2023-05-11T07:10:08;101096.88;;;18.34;38.36
35248;BME280;21380;52.194;20.520;2023-05-11T07:12:34;101086.41;;;18.32;38.20
35248;BME280;21380;52.194;20.520;2023-05-11T07:15:00;101092.47;;;18.33;38.43
35248;BME280;21380;52.194;20.520;2023-05-11T07:17:26;101101.47;;;18.45;38.64
35248;BME280;21380;52.194;20.520;2023-05-11T07:19:53;101099.72;;;18.47;38.50
35248;BME280;21380;52.194;20.520;2023-05-11T07:22:20;101073.38;;;18.35;38.63
35248;BME280;21380;52.194;20.520;2023-05-11T07:24:46;101097.19;;;18.49;38.54
35248;BME280;21380;52.194;20.520;2023-05-11T07:27:11;101098.97;;;18.52;38.78
35248;BME280;21380;52.194;20.520;2023-05-11T07:29:37;101096.34;;;18.52;38.77
35248;BME280;21380;52.194;20.520;2023-05-11T07:32:03;101077.94;;;18.45;38.86
35248;BME280;21380;52.194;20.520;2023-05-11T07:34:29;101095.53;;;18.54;38.78
35248;BME280;21380;52.194;20.520;2023-05-11T07:36:55;101065.59;;;18.37;38.81
35248;BME280;21380;52.194;20.520;2023-05-11T07:39:21;101089.41;;;18.55;38.99
35248;BME280;21380;52.194;20.520;2023-05-11T07:41:47;101068.34;;;18.44;38.95
35248;BME280;21380;52.194;20.520;2023-05-11T07:44:13;101076.22;;;18.47;38.88
35248;BME280;21380;52.194;20.520;2023-05-11T07:46:39;101087.63;;;18.53;39.12
35248;BME280;21380;52.194;20.520;2023-05-11T07:49:05;101091.25;;;18.58;39.06
35248;BME280;21380;52.194;20.520;2023-05-11T07:51:30;101092.09;;;18.58;39.08
35248;BME280;21380;52.194;20.520;2023-05-11T07:53:56;101084.28;;;18.60;39.20
35248;BME280;21380;52.194;20.520;2023-05-11T07:56:22;101078.00;;;18.50;39.16
35248;BME280;21380;52.194;20.520;2023-05-11T07:58:48;101076.34;;;18.55;39.33
35248;BME280;21380;52.194;20.520;2023-05-11T08:01:14;101099.13;;;18.61;39.22
35248;BME280;21380;52.194;20.520;2023-05-11T08:03:40;101082.47;;;18.56;39.38
35248;BME280;21380;52.194;20.520;2023-05-11T08:06:06;101072.84;;;18.52;39.47
35248;BME280;21380;52.194;20.520;2023-05-11T08:08:32;101093.91;;;18.62;39.28
35248;BME280;21380;52.194;20.520;2023-05-11T08:10:59;101074.63;;;18.54;39.33
35248;BME280;21380;52.194;20.520;2023-05-11T08:13:26;101085.22;;;18.63;39.45
35248;BME280;21380;52.194;20.520;2023-05-11T08:15:51;101075.50;;;18.56;39.90
35248;BME280;21380;52.194;20.520;2023-05-11T08:18:17;101087.00;;;18.64;39.69
35248;BME280;21380;52.194;20.520;2023-05-11T08:20:43;101065.88;;;18.54;39.66
35248;BME280;21380;52.194;20.520;2023-05-11T08:23:09;101087.00;;;18.64;39.70
35248;BME280;21380;52.194;20.520;2023-05-11T08:25:35;101077.25;;;18.56;39.70
35248;BME280;21380;52.194;20.520;2023-05-11T08:28:01;101076.44;;;18.58;39.85
35248;BME280;21380;52.194;20.520;2023-05-11T08:30:27;101067.75;;;18.59;39.72
35248;BME280;21380;52.194;20.520;2023-05-11T08:32:53;101075.69;;;18.66;39.80
35248;BME280;21380;52.194;20.520;2023-05-11T08:35:18;101042.38;;;18.54;39.89
35248;BME280;21380;52.194;20.520;2023-05-11T08:37:44;101050.22;;;18.54;40.12
35248;BME280;21380;52.194;20.520;2023-05-11T08:40:11;101055.44;;;18.54;39.88
35248;BME280;21380;52.194;20.520;2023-05-11T08:42:39;101062.56;;;18.62;39.75
35248;BME280;21380;52.194;20.520;2023-05-11T08:45:06;101050.31;;;18.58;39.99
35248;BME280;21380;52.194;20.520;2023-05-11T08:47:32;101051.09;;;18.54;39.72
35248;BME280;21380;52.194;20.520;2023-05-11T08:49:58;101077.47;;;18.67;39.99
35248;BME280;21380;52.194;20.520;2023-05-11T08:52:25;101052.91;;;18.57;40.14
35248;BME280;21380;52.194;20.520;2023-05-11T08:54:52;101059.84;;;18.56;40.07
35248;BME280;21380;52.194;20.520;2023-05-11T08:57:18;101075.72;;;18.67;40.16
35248;BME280;21380;52.194;20.520;2023-05-11T08:59:45;101053.84;;;18.62;40.23
35248;BME280;21380;52.194;20.520;2023-05-11T09:02:18;101049.38;;;18.56;40.27
35248;BME280;21380;52.194;20.520;2023-05-11T09:04:45;101067.84;;;18.66;40.06
35248;BME280;21380;52.194;20.520;2023-05-11T09:07:15;101053.84;;;18.62;40.13
35248;BME280;21380;52.194;20.520;2023-05-11T09:09:42;101073.94;;;18.66;40.40
35248;BME280;21380;52.194;20.520;2023-05-11T09:12:08;101056.38;;;18.57;40.29
35248;BME280;21380;52.194;20.520;2023-05-11T09:14:35;101059.09;;;18.63;40.27
35248;BME280;21380;52.194;20.520;2023-05-11T09:17:01;101049.47;;;18.61;40.30
35248;BME280;21380;52.194;20.520;2023-05-11T09:19:29;101060.91;;;18.68;40.41
35248;BME280;21380;52.194;20.520;2023-05-11T09:21:55;101068.78;;;18.69;40.27
35248;BME280;21380;52.194;20.520;2023-05-11T09:24:21;101051.25;;;18.63;40.27
35248;BME280;21380;52.194;20.520;2023-05-11T09:26:47;101072.28;;;18.70;40.37
35248;BME280;21380;52.194;20.520;2023-05-11T09:29:13;101066.19;;;18.71;40.49
35248;BME280;21380;52.194;20.520;2023-05-11T09:31:44;101062.69;;;18.70;40.60
35248;BME280;21380;52.194;20.520;2023-05-11T09:34:19;101058.34;;;18.69;40.54
35248;BME280;21380;52.194;20.520;2023-05-11T09:36:47;101055.66;;;18.68;40.61
35248;BME280;21380;52.194;20.520;2023-05-11T09:39:13;101061.84;;;18.71;40.47
35248;BME280;21380;52.194;20.520;2023-05-11T09:41:39;101053.03;;;18.64;40.46
35248;BME280;21380;52.194;20.520;2023-05-11T09:44:10;101049.50;;;18.62;40.50
35248;BME280;21380;52.194;20.520;2023-05-11T09:46:41;101046.00;;;18.60;40.48
35248;BME280;21380;52.194;20.520;2023-05-11T09:49:08;101051.28;;;18.65;40.63
35248;BME280;21380;52.194;20.520;2023-05-11T09:51:36;101053.94;;;18.67;40.50
35248;BME280;21380;52.194;20.520;2023-05-11T09:54:16;101050.50;;;18.71;40.66
35248;BME280;21380;52.194;20.520;2023-05-11T09:56:44;101060.13;;;18.72;40.71
35248;BME280;21380;52.194;20.520;2023-05-11T09:59:13;101045.19;;;18.64;40.71
35248;BME280;21380;52.194;20.520;2023-05-11T10:01:39;101053.06;;;18.68;40.40
35248;BME280;21380;52.194;20.520;2023-05-11T10:04:05;101040.88;;;18.67;40.79
35248;BME280;21380;52.194;20.520;2023-05-11T10:06:47;101019.78;;;18.57;40.78
35248;BME280;21380;52.194;20.520;2023-05-11T10:09:15;101040.09;;;18.72;40.79
35248;BME280;21380;52.194;20.520;2023-05-11T10:11:44;101033.84;;;18.64;40.95
35248;BME280;21380;52.194;20.520;2023-05-11T10:14:12;101049.66;;;18.72;40.69
35248;BME280;21380;52.194;20.520;2023-05-11T10:16:40;101032.22;;;18.69;40.87
35248;BME280;21380;52.194;20.520;2023-05-11T10:19:06;101024.19;;;18.58;40.98
35248;BME280;21380;52.194;20.520;2023-05-11T10:21:33;101044.44;;;18.72;41.01
35248;BME280;21380;52.194;20.520;2023-05-11T10:24:01;101011.09;;;18.58;41.05
35248;BME280;21380;52.194;20.520;2023-05-11T10:26:29;101020.91;;;18.72;40.98
35248;BME280;21380;52.194;20.520;2023-05-11T10:28:59;101032.22;;;18.69;41.00
35248;BME280;21380;52.194;20.520;2023-05-11T10:31:25;101018.19;;;18.66;40.97
35248;BME280;21380;52.194;20.520;2023-05-11T10:33:52;101027.00;;;18.72;41.08
35248;BME280;21380;52.194;20.520;2023-05-11T10:36:18;101024.41;;;18.74;41.00
35248;BME280;21380;52.194;20.520;2023-05-11T10:38:44;101015.69;;;18.72;40.97
35248;BME280;21380;52.194;20.520;2023-05-11T10:44:31;101013.09;;;18.73;40.90
35248;BME280;21380;52.194;20.520;2023-05-11T10:50:15;101012.19;;;18.73;40.89
35248;BME280;21380;52.194;20.520;2023-05-11T11:03:59;101000.03;;;18.73;40.97
35248;BME280;21380;52.194;20.520;2023-05-11T11:06:31;101003.50;;;18.74;41.08
35248;BME280;21380;52.194;20.520;2023-05-11T11:08:57;100992.19;;;18.73;41.38
35248;BME280;21380;52.194;20.520;2023-05-11T11:13:57;100970.13;;;18.56;41.32
35248;BME280;21380;52.194;20.520;2023-05-11T11:16:24;100993.06;;;18.74;41.18
35248;BME280;21380;52.194;20.520;2023-05-11T11:18:50;100985.16;;;18.69;41.24
35248;BME280;21380;52.194;20.520;2023-05-11T11:21:38;100996.56;;;18.74;41.21
35248;BME280;21380;52.194;20.520;2023-05-11T11:24:05;100989.59;;;18.75;41.41
35248;BME280;21380;52.194;20.520;2023-05-11T11:26:48;100989.59;;;18.75;41.36
35248;BME280;21380;52.194;20.520;2023-05-11T11:29:14;100990.44;;;18.72;41.00
35248;BME280;21380;52.194;20.520;2023-05-11T11:31:41;100993.06;;;18.74;41.38
35248;BME280;21380;52.194;20.520;2023-05-11T11:39:24;100990.44;;;18.72;41.20
35248;BME280;21380;52.194;20.520;2023-05-11T11:42:05;100992.19;;;18.73;41.35
35248;BME280;21380;52.194;20.520;2023-05-11T11:44:33;100994.81;;;18.75;41.41
35248;BME280;21380;52.194;20.520;2023-05-11T11:47:21;100996.59;;;18.76;41.27
35248;BME280;21380;52.194;20.520;2023-05-11T11:49:54;100985.19;;;18.71;41.51
35248;BME280;21380;52.194;20.520;2023-05-11T11:54:57;100985.22;;;18.74;41.34
35248;BME280;21380;52.194;20.520;2023-05-11T12:02:27;100992.22;;;18.76;41.32
35248;BME280;21380;52.194;20.520;2023-05-11T12:04:59;100979.03;;;18.67;41.34
35248;BME280;21380;52.194;20.520;2023-05-11T12:07:26;100989.59;;;18.75;41.58
35248;BME280;21380;52.194;20.520;2023-05-11T12:09:52;100990.50;;;18.77;41.38
35248;BME280;21380;52.194;20.520;2023-05-11T12:12:19;100987.91;;;18.77;41.62
35248;BME280;21380;52.194;20.520;2023-05-11T12:14:46;100977.31;;;18.69;41.62
35248;BME280;21380;52.194;20.520;2023-05-11T12:17:23;100983.53;;;18.77;41.39
35248;BME280;21380;52.194;20.520;2023-05-11T12:19:49;100978.22;;;18.71;41.58
35248;BME280;21380;52.194;20.520;2023-05-11T12:22:23;100978.28;;;18.76;41.73
35248;BME280;21380;52.194;20.520;2023-05-11T12:24:49;100965.97;;;18.69;41.66
35248;BME280;21380;52.194;20.520;2023-05-11T12:27:18;100973.06;;;18.76;41.75
35248;BME280;21380;52.194;20.520;2023-05-11T12:29:48;100967.78;;;18.73;41.76
35248;BME280;21380;52.194;20.520;2023-05-11T12:32:24;100953.84;;;18.74;41.68
35248;BME280;21380;52.194;20.520;2023-05-11T12:35:00;100954.66;;;18.70;42.11
35248;BME280;21380;52.194;20.520;2023-05-11T12:37:31;100971.38;;;18.79;41.79
35248;BME280;21380;52.194;20.520;2023-05-11T12:39:58;100975.72;;;18.79;41.85
35248;BME280;21380;52.194;20.520;2023-05-11T12:42:25;100953.84;;;18.74;41.83
35248;BME280;21380;52.194;20.520;2023-05-11T12:44:50;100962.63;;;18.79;41.72
35248;BME280;21380;52.194;20.520;2023-05-11T12:47:17;100964.41;;;18.80;41.90
35248;BME280;21380;52.194;20.520;2023-05-11T12:49:43;100949.53;;;18.76;41.72
35248;BME280;21380;52.194;20.520;2023-05-11T12:52:09;100958.28;;;18.78;41.96
35248;BME280;21380;52.194;20.520;2023-05-11T12:54:39;100961.78;;;18.80;41.90
35248;BME280;21380;52.194;20.520;2023-05-11T12:57:07;100958.31;;;18.81;41.88
35248;BME280;21380;52.194;20.520;2023-05-11T12:59:46;100954.84;;;18.80;41.94
35248;BME280;21380;52.194;20.520;2023-05-11T13:02:17;100941.72;;;18.77;42.00
35248;BME280;21380;52.194;20.520;2023-05-11T13:04:45;100953.09;;;18.81;42.03
35248;BME280;21380;52.194;20.520;2023-05-11T13:07:13;100947.88;;;18.81;42.20
35248;BME280;21380;52.194;20.520;2023-05-11T13:09:40;100941.78;;;18.80;42.27
35248;BME280;21380;52.194;20.520;2023-05-11T13:12:10;100949.63;;;18.82;41.92
35248;BME280;21380;52.194;20.520;2023-05-11T13:14:37;100944.41;;;18.82;42.09
35248;BME280;21380;52.194;20.520;2023-05-11T13:17:03;100923.34;;;18.71;42.15
35248;BME280;21380;52.194;20.520;2023-05-11T13:19:30;100923.31;;;18.70;42.20
35248;BME280;21380;52.194;20.520;2023-05-11T13:21:58;100934.16;;;18.94;38.06
35248;BME280;21380;52.194;20.520;2023-05-11T13:24:25;100932.00;;;19.28;37.57
35248;BME280;21380;52.194;20.520;2023-05-11T13:26:52;100923.25;;;19.26;36.21